sensor_id;sensor_type;location;lat;lon;timestamp;pressure;altitude;pressure_sealevel;temperature;humidity
84190;BME280;74321;53.406;8.146;2024-03-08T00:03:49;102452.47;;;0.69;100.00
84190;BME280;74321;53.406;8.146;2024-03-08T00:08:51;102453.31;;;0.56;100.00
84190;BME280;74321;53.406;8.146;2024-03-08T00:13:53;102452.28;;;0.53;100.00
84190;BME280;74321;53.406;8.146;2024-03-08T00:18:55;102460.81;;;0.42;100.00
84190;BME280;74321;53.406;8.146;2024-03-08T00:23:57;102454.09;;;0.55;100.00
84190;BME280;74321;53.406;8.146;2024-03-08T00:28:59;102451.88;;;0.47;100.00
84190;BME280;74321;53.406;8.146;2024-03-08T00:34:01;102446.06;;;0.35;100.00
84190;BME280;74321;53.406;8.146;2024-03-08T00:39:04;102452.00;;;0.35;100.00
84190;BME280;74321;53.406;8.146;2024-03-08T00:44:08;102443.72;;;0.24;100.00
84190;BME280;74321;53.406;8.146;2024-03-08T00:49:12;102432.47;;;0.19;100.00
84190;BME280;74321;53.406;8.146;2024-03-08T00:54:14;102454.47;;;0.22;100.00
84190;BME280;74321;53.406;8.146;2024-03-08T00:59:17;102432.25;;;0.16;100.00
84190;BME280;74321;53.406;8.146;2024-03-08T01:04:18;102425.22;;;0.11;100.00
84190;BME280;74321;53.406;8.146;2024-03-08T01:09:23;102428.59;;;0.11;100.00
84190;BME280;74321;53.406;8.146;2024-03-08T01:14:25;102410.94;;;0.11;100.00
84190;BME280;74321;53.406;8.146;2024-03-08T01:19:33;102400.66;;;-0.05;100.00
84190;BME280;74321;53.406;8.146;2024-03-08T01:24:35;102404.25;;;-0.15;100.00
84190;BME280;74321;53.406;8.146;2024-03-08T01:29:37;102402.28;;;-0.19;100.00
84190;BME280;74321;53.406;8.146;2024-03-08T01:34:39;102400.53;;;-0.20;100.00
84190;BME280;74321;53.406;8.146;2024-03-08T01:39:41;102384.06;;;-0.28;100.00
84190;BME280;74321;53.406;8.146;2024-03-08T01:44:44;102362.63;;;-0.48;100.00
84190;BME280;74321;53.406;8.146;2024-03-08T01:49:46;102367.88;;;-0.32;100.00
84190;BME280;74321;53.406;8.146;2024-03-08T01:54:48;102359.59;;;-0.42;100.00
84190;BME280;74321;53.406;8.146;2024-03-08T01:59:50;102350.53;;;-0.40;100.00
84190;BME280;74321;53.406;8.146;2024-03-08T02:04:52;102350.44;;;-0.29;100.00
84190;BME280;74321;53.406;8.146;2024-03-08T02:09:55;102357.22;;;-0.41;100.00
84190;BME280;74321;53.406;8.146;2024-03-08T02:14:57;102350.41;;;-0.55;100.00
84190;BME280;74321;53.406;8.146;2024-03-08T02:19:59;102345.53;;;-0.52;100.00
84190;BME280;74321;53.406;8.146;2024-03-08T02:25:03;102340.22;;;-0.57;100.00
84190;BME280;74321;53.406;8.146;2024-03-08T02:30:07;102331.59;;;-0.85;100.00
84190;BME280;74321;53.406;8.146;2024-03-08T02:35:10;102332.94;;;-0.65;100.00
84190;BME280;74321;53.406;8.146;2024-03-08T02:40:12;102316.88;;;-0.92;100.00
84190;BME280;74321;53.406;8.146;2024-03-08T02:45:14;102325.69;;;-0.86;100.00
84190;BME280;74321;53.406;8.146;2024-03-08T02:50:16;102317.47;;;-1.08;100.00
84190;BME280;74321;53.406;8.146;2024-03-08T02:55:18;102314.75;;;-1.36;100.00
84190;BME280;74321;53.406;8.146;2024-03-08T03:00:22;102322.81;;;-1.28;100.00
84190;BME280;74321;53.406;8.146;2024-03-08T03:05:29;102304.84;;;-1.46;100.00
84190;BME280;74321;53.406;8.146;2024-03-08T03:10:31;102308.66;;;-1.51;100.00
84190;BME280;74321;53.406;8.146;2024-03-08T03:15:33;102297.41;;;-1.45;100.00
84190;BME280;74321;53.406;8.146;2024-03-08T03:20:35;102309.78;;;-1.48;100.00
84190;BME280;74321;53.406;8.146;2024-03-08T03:25:45;102297.31;;;-1.46;100.00
84190;BME280;74321;53.406;8.146;2024-03-08T03:30:47;102294.19;;;-1.30;100.00
84190;BME280;74321;53.406;8.146;2024-03-08T03:35:49;102296.38;;;-1.10;100.00
84190;BME280;74321;53.406;8.146;2024-03-08T03:40:53;102301.66;;;-1.07;100.00
84190;BME280;74321;53.406;8.146;2024-03-08T03:45:59;102292.50;;;-1.18;100.00
84190;BME280;74321;53.406;8.146;2024-03-08T03:51:01;102290.84;;;-1.18;100.00
84190;BME280;74321;53.406;8.146;2024-03-08T03:56:03;102285.19;;;-1.27;100.00
84190;BME280;74321;53.406;8.146;2024-03-08T04:01:11;102301.41;;;-1.10;100.00
84190;BME280;74321;53.406;8.146;2024-03-08T04:06:13;102308.53;;;-1.16;100.00
84190;BME280;74321;53.406;8.146;2024-03-08T04:11:16;102292.03;;;-1.13;100.00
84190;BME280;74321;53.406;8.146;2024-03-08T04:16:18;102282.34;;;-1.20;100.00
84190;BME280;74321;53.406;8.146;2024-03-08T04:21:20;102273.16;;;-1.19;100.00
84190;BME280;74321;53.406;8.146;2024-03-08T04:26:22;102270.63;;;-1.19;100.00
84190;BME280;74321;53.406;8.146;2024-03-08T04:31:24;102279.03;;;-1.19;100.00
84190;BME280;74321;53.406;8.146;2024-03-08T04:36:28;102264.72;;;-1.20;100.00
84190;BME280;74321;53.406;8.146;2024-03-08T04:41:30;102285.81;;;-1.18;100.00
84190;BME280;74321;53.406;8.146;2024-03-08T04:46:32;102258.22;;;-1.29;100.00
84190;BME280;74321;53.406;8.146;2024-03-08T04:51:34;102256.16;;;-1.35;100.00
84190;BME280;74321;53.406;8.146;2024-03-08T04:56:36;102251.72;;;-1.26;100.00
84190;BME280;74321;53.406;8.146;2024-03-08T05:01:38;102253.91;;;-1.19;100.00
84190;BME280;74321;53.406;8.146;2024-03-08T05:06:40;102242.53;;;-1.25;100.00
84190;BME280;74321;53.406;8.146;2024-03-08T05:11:43;102241.91;;;-1.23;100.00
84190;BME280;74321;53.406;8.146;2024-03-08T05:16:52;102245.56;;;-1.18;100.00
84190;BME280;74321;53.406;8.146;2024-03-08T05:21:54;102248.97;;;-1.17;100.00
84190;BME280;74321;53.406;8.146;2024-03-08T05:26:56;102228.31;;;-1.38;100.00
84190;BME280;74321;53.406;8.146;2024-03-08T05:31:58;102243.28;;;-1.39;100.00
84190;BME280;74321;53.406;8.146;2024-03-08T05:37:01;102239.22;;;-1.37;100.00
84190;BME280;74321;53.406;8.146;2024-03-08T05:42:04;102248.84;;;-1.32;100.00
84190;BME280;74321;53.406;8.146;2024-03-08T05:47:06;102220.59;;;-1.53;100.00
84190;BME280;74321;53.406;8.146;2024-03-08T05:52:08;102239.13;;;-1.39;100.00
84190;BME280;74321;53.406;8.146;2024-03-08T05:57:11;102236.13;;;-1.33;100.00
84190;BME280;74321;53.406;8.146;2024-03-08T06:02:13;102238.28;;;-1.26;100.00
84190;BME280;74321;53.406;8.146;2024-03-08T06:07:20;102214.75;;;-1.40;100.00
84190;BME280;74321;53.406;8.146;2024-03-08T06:12:22;102226.59;;;-1.26;100.00
84190;BME280;74321;53.406;8.146;2024-03-08T06:17:26;102224.84;;;-1.27;100.00
84190;BME280;74321;53.406;8.146;2024-03-08T06:22:28;102214.13;;;-1.24;100.00
84190;BME280;74321;53.406;8.146;2024-03-08T06:27:32;102204.69;;;-1.15;100.00
84190;BME280;74321;53.406;8.146;2024-03-08T06:32:36;102192.13;;;-1.15;100.00
84190;BME280;74321;53.406;8.146;2024-03-08T06:37:39;102205.28;;;-1.06;100.00
84190;BME280;74321;53.406;8.146;2024-03-08T06:42:41;102135.09;;;-1.28;100.00
84190;BME280;74321;53.406;8.146;2024-03-08T06:47:43;102133.56;;;-1.26;100.00
84190;BME280;74321;53.406;8.146;2024-03-08T06:52:47;102206.66;;;-0.85;100.00
84190;BME280;74321;53.406;8.146;2024-03-08T06:57:55;102181.22;;;-0.89;100.00
84190;BME280;74321;53.406;8.146;2024-03-08T07:02:58;102203.47;;;-0.69;100.00
84190;BME280;74321;53.406;8.146;2024-03-08T07:08:05;102200.97;;;-0.69;100.00
84190;BME280;74321;53.406;8.146;2024-03-08T07:13:08;102202.03;;;-0.52;100.00
84190;BME280;74321;53.406;8.146;2024-03-08T07:18:12;102183.28;;;-0.57;100.00
84190;BME280;74321;53.406;8.146;2024-03-08T07:23:17;102200.97;;;-0.29;100.00
84190;BME280;74321;53.406;8.146;2024-03-08T07:28:39;102215.09;;;-0.05;100.00
84190;BME280;74321;53.406;8.146;2024-03-08T07:33:42;102217.38;;;0.06;100.00
84190;BME280;74321;53.406;8.146;2024-03-08T07:38:45;102211.81;;;0.24;100.00
84190;BME280;74321;53.406;8.146;2024-03-08T07:43:49;102208.97;;;0.33;100.00
84190;BME280;74321;53.406;8.146;2024-03-08T07:48:51;102206.06;;;0.55;100.00
84190;BME280;74321;53.406;8.146;2024-03-08T07:53:54;102191.75;;;0.69;100.00
84190;BME280;74321;53.406;8.146;2024-03-08T07:58:57;102176.88;;;0.73;100.00
84190;BME280;74321;53.406;8.146;2024-03-08T08:04:00;102138.34;;;0.76;100.00
84190;BME280;74321;53.406;8.146;2024-03-08T08:09:03;102164.19;;;1.16;100.00
84190;BME280;74321;53.406;8.146;2024-03-08T08:14:06;102172.63;;;1.62;100.00
84190;BME280;74321;53.406;8.146;2024-03-08T08:19:11;102163.69;;;1.53;100.00
84190;BME280;74321;53.406;8.146;2024-03-08T08:24:19;102173.66;;;2.13;100.00
84190;BME280;74321;53.406;8.146;2024-03-08T08:29:24;102164.44;;;2.64;100.00
84190;BME280;74321;53.406;8.146;2024-03-08T08:34:27;102129.09;;;3.35;100.00
84190;BME280;74321;53.406;8.146;2024-03-08T08:39:29;102151.59;;;3.84;100.00
84190;BME280;74321;53.406;8.146;2024-03-08T08:44:32;102156.22;;;4.12;100.00
84190;BME280;74321;53.406;8.146;2024-03-08T08:49:34;102123.47;;;4.78;100.00
84190;BME280;74321;53.406;8.146;2024-03-08T08:54:38;102117.50;;;5.19;100.00
84190;BME280;74321;53.406;8.146;2024-03-08T08:59:41;102132.72;;;5.62;100.00
84190;BME280;74321;53.406;8.146;2024-03-08T09:04:44;102121.91;;;5.68;100.00
84190;BME280;74321;53.406;8.146;2024-03-08T09:09:46;102109.53;;;6.00;100.00
84190;BME280;74321;53.406;8.146;2024-03-08T09:14:49;102105.13;;;6.43;100.00
84190;BME280;74321;53.406;8.146;2024-03-08T09:19:52;102108.69;;;5.99;100.00
84190;BME280;74321;53.406;8.146;2024-03-08T09:24:57;102097.34;;;6.91;100.00
84190;BME280;74321;53.406;8.146;2024-03-08T09:29:59;102091.13;;;7.10;100.00
84190;BME280;74321;53.406;8.146;2024-03-08T09:35:02;102084.03;;;6.73;100.00
84190;BME280;74321;53.406;8.146;2024-03-08T09:40:05;102068.59;;;7.22;100.00
84190;BME280;74321;53.406;8.146;2024-03-08T09:45:12;102065.00;;;7.76;100.00
84190;BME280;74321;53.406;8.146;2024-03-08T09:50:17;102057.78;;;7.31;100.00
84190;BME280;74321;53.406;8.146;2024-03-08T09:55:21;102045.16;;;8.29;100.00
84190;BME280;74321;53.406;8.146;2024-03-08T10:00:25;102046.34;;;9.14;100.00
84190;BME280;74321;53.406;8.146;2024-03-08T10:05:28;102042.66;;;9.84;100.00
84190;BME280;74321;53.406;8.146;2024-03-08T10:10:30;102035.34;;;9.18;100.00
84190;BME280;74321;53.406;8.146;2024-03-08T10:15:33;102012.19;;;9.10;100.00
84190;BME280;74321;53.406;8.146;2024-03-08T10:20:36;102010.97;;;9.77;97.75
84190;BME280;74321;53.406;8.146;2024-03-08T10:25:38;101989.53;;;10.21;91.36
84190;BME280;74321;53.406;8.146;2024-03-08T10:30:47;101976.44;;;10.04;96.65
84190;BME280;74321;53.406;8.146;2024-03-08T10:35:50;101987.81;;;10.74;92.11
84190;BME280;74321;53.406;8.146;2024-03-08T10:40:53;101972.28;;;10.63;97.17
84190;BME280;74321;53.406;8.146;2024-03-08T10:46:08;101972.44;;;10.76;92.50
84190;BME280;74321;53.406;8.146;2024-03-08T10:51:15;101971.38;;;10.08;82.41
84190;BME280;74321;53.406;8.146;2024-03-08T10:56:17;101963.41;;;11.78;78.33
84190;BME280;74321;53.406;8.146;2024-03-08T11:01:19;101956.50;;;10.95;78.90
84190;BME280;74321;53.406;8.146;2024-03-08T11:06:42;101964.19;;;10.93;82.50
84190;BME280;74321;53.406;8.146;2024-03-08T11:11:47;101946.41;;;10.47;84.00
84190;BME280;74321;53.406;8.146;2024-03-08T11:16:49;101934.34;;;9.88;82.17
84190;BME280;74321;53.406;8.146;2024-03-08T11:22:13;101928.34;;;8.95;86.61
84190;BME280;74321;53.406;8.146;2024-03-08T11:27:31;101937.22;;;11.26;71.56
84190;BME280;74321;53.406;8.146;2024-03-08T11:32:33;101932.97;;;10.60;87.01
84190;BME280;74321;53.406;8.146;2024-03-08T11:37:35;101911.28;;;11.02;76.25
84190;BME280;74321;53.406;8.146;2024-03-08T11:42:37;101903.84;;;10.58;72.38
84190;BME280;74321;53.406;8.146;2024-03-08T11:47:43;101910.16;;;10.83;76.92
84190;BME280;74321;53.406;8.146;2024-03-08T11:52:48;101887.94;;;11.59;80.03
84190;BME280;74321;53.406;8.146;2024-03-08T11:57:59;101881.75;;;10.66;75.39
84190;BME280;74321;53.406;8.146;2024-03-08T12:03:03;101846.31;;;11.04;75.89
84190;BME280;74321;53.406;8.146;2024-03-08T12:08:05;101874.81;;;12.32;73.95
84190;BME280;74321;53.406;8.146;2024-03-08T12:13:09;101846.91;;;13.24;64.09
84190;BME280;74321;53.406;8.146;2024-03-08T12:18:15;101845.97;;;13.05;62.16
84190;BME280;74321;53.406;8.146;2024-03-08T12:23:17;101854.56;;;11.62;64.25
84190;BME280;74321;53.406;8.146;2024-03-08T12:28:20;101827.94;;;12.91;56.26
84190;BME280;74321;53.406;8.146;2024-03-08T12:33:24;101837.34;;;12.89;57.85
84190;BME280;74321;53.406;8.146;2024-03-08T12:38:29;101819.47;;;13.24;58.60
84190;BME280;74321;53.406;8.146;2024-03-08T12:43:33;101795.41;;;13.72;52.87
84190;BME280;74321;53.406;8.146;2024-03-08T12:48:36;101792.81;;;13.95;52.62
84190;BME280;74321;53.406;8.146;2024-03-08T12:53:42;101790.22;;;14.00;52.44
84190;BME280;74321;53.406;8.146;2024-03-08T12:58:46;101770.16;;;12.06;64.17
84190;BME280;74321;53.406;8.146;2024-03-08T13:03:48;101785.69;;;12.28;63.66
84190;BME280;74321;53.406;8.146;2024-03-08T13:08:51;101788.41;;;9.87;77.49
84190;BME280;74321;53.406;8.146;2024-03-08T13:13:57;101752.25;;;12.22;54.37
84190;BME280;74321;53.406;8.146;2024-03-08T13:19:04;101767.97;;;13.53;57.66
84190;BME280;74321;53.406;8.146;2024-03-08T13:24:06;101754.22;;;12.99;49.23
84190;BME280;74321;53.406;8.146;2024-03-08T13:29:08;101712.19;;;12.92;51.01
84190;BME280;74321;53.406;8.146;2024-03-08T13:34:11;101724.19;;;13.10;52.20
84190;BME280;74321;53.406;8.146;2024-03-08T13:39:13;101706.19;;;13.27;46.69
84190;BME280;74321;53.406;8.146;2024-03-08T13:44:18;101695.88;;;13.53;47.09
84190;BME280;74321;53.406;8.146;2024-03-08T13:49:20;101697.28;;;14.37;46.75
84190;BME280;74321;53.406;8.146;2024-03-08T13:54:22;101699.31;;;12.91;46.08
84190;BME280;74321;53.406;8.146;2024-03-08T13:59:24;101689.88;;;13.22;51.72
84190;BME280;74321;53.406;8.146;2024-03-08T14:04:31;101684.72;;;13.19;53.63
84190;BME280;74321;53.406;8.146;2024-03-08T14:09:34;101676.41;;;10.37;68.62
84190;BME280;74321;53.406;8.146;2024-03-08T14:14:44;101626.09;;;11.61;59.71
84190;BME280;74321;53.406;8.146;2024-03-08T14:19:46;101647.44;;;11.52;65.02
84190;BME280;74321;53.406;8.146;2024-03-08T14:24:49;101603.25;;;12.80;56.96
84190;BME280;74321;53.406;8.146;2024-03-08T14:29:51;101601.44;;;10.58;64.65
84190;BME280;74321;53.406;8.146;2024-03-08T14:34:53;101606.09;;;11.08;65.16
84190;BME280;74321;53.406;8.146;2024-03-08T14:39:57;101612.66;;;10.71;65.43
84190;BME280;74321;53.406;8.146;2024-03-08T14:44:59;101604.25;;;10.91;64.13
84190;BME280;74321;53.406;8.146;2024-03-08T14:50:02;101602.03;;;10.28;75.25
84190;BME280;74321;53.406;8.146;2024-03-08T14:55:04;101590.81;;;9.50;80.91
84190;BME280;74321;53.406;8.146;2024-03-08T15:00:08;101581.84;;;10.64;79.16
84190;BME280;74321;53.406;8.146;2024-03-08T15:05:18;101574.69;;;9.52;82.86
84190;BME280;74321;53.406;8.146;2024-03-08T15:10:23;101581.69;;;8.05;98.05
84190;BME280;74321;53.406;8.146;2024-03-08T15:15:27;101549.25;;;7.56;100.00
84190;BME280;74321;53.406;8.146;2024-03-08T15:20:32;101556.13;;;7.60;100.00
84190;BME280;74321;53.406;8.146;2024-03-08T15:25:36;101534.53;;;7.44;100.00
84190;BME280;74321;53.406;8.146;2024-03-08T15:30:41;101519.00;;;7.30;100.00
84190;BME280;74321;53.406;8.146;2024-03-08T15:35:48;101512.06;;;7.25;100.00
84190;BME280;74321;53.406;8.146;2024-03-08T15:40:52;101494.84;;;7.13;100.00
84190;BME280;74321;53.406;8.146;2024-03-08T15:45:56;101497.47;;;7.18;100.00
84190;BME280;74321;53.406;8.146;2024-03-08T15:51:00;101502.50;;;7.15;100.00
84190;BME280;74321;53.406;8.146;2024-03-08T15:56:04;101492.97;;;7.04;100.00
84190;BME280;74321;53.406;8.146;2024-03-08T16:01:10;101484.16;;;6.92;100.00
84190;BME280;74321;53.406;8.146;2024-03-08T16:06:15;101491.75;;;6.89;100.00
84190;BME280;74321;53.406;8.146;2024-03-08T16:11:18;101479.53;;;6.74;100.00
84190;BME280;74321;53.406;8.146;2024-03-08T16:16:20;101472.53;;;6.64;100.00
84190;BME280;74321;53.406;8.146;2024-03-08T16:21:25;101475.81;;;6.60;100.00
84190;BME280;74321;53.406;8.146;2024-03-08T16:26:27;101460.22;;;6.46;100.00
84190;BME280;74321;53.406;8.146;2024-03-08T16:31:29;101452.25;;;6.32;100.00
84190;BME280;74321;53.406;8.146;2024-03-08T16:36:31;101406.44;;;5.96;100.00
84190;BME280;74321;53.406;8.146;2024-03-08T16:41:34;101444.28;;;6.18;100.00
84190;BME280;74321;53.406;8.146;2024-03-08T16:46:36;101455.69;;;5.98;100.00
84190;BME280;74321;53.406;8.146;2024-03-08T16:51:44;101460.06;;;5.72;100.00
84190;BME280;74321;53.406;8.146;2024-03-08T16:56:46;101451.38;;;5.64;100.00
84190;BME280;74321;53.406;8.146;2024-03-08T17:01:49;101453.38;;;5.44;100.00
84190;BME280;74321;53.406;8.146;2024-03-08T17:06:51;101456.66;;;5.40;100.00
84190;BME280;74321;53.406;8.146;2024-03-08T17:11:55;101434.84;;;5.18;100.00
84190;BME280;74321;53.406;8.146;2024-03-08T17:16:57;101449.22;;;5.16;100.00
84190;BME280;74321;53.406;8.146;2024-03-08T17:22:03;101449.63;;;5.01;100.00
84190;BME280;74321;53.406;8.146;2024-03-08T17:27:05;101452.19;;;5.03;100.00
84190;BME280;74321;53.406;8.146;2024-03-08T17:32:08;101451.03;;;4.92;100.00
84190;BME280;74321;53.406;8.146;2024-03-08T17:37:10;101440.19;;;4.69;100.00
84190;BME280;74321;53.406;8.146;2024-03-08T17:42:12;101445.78;;;4.57;100.00
84190;BME280;74321;53.406;8.146;2024-03-08T17:47:14;101434.00;;;4.32;100.00
84190;BME280;74321;53.406;8.146;2024-03-08T17:52:17;101451.06;;;4.38;100.00
84190;BME280;74321;53.406;8.146;2024-03-08T17:57:19;101422.38;;;4.39;100.00
84190;BME280;74321;53.406;8.146;2024-03-08T18:02:21;101430.53;;;4.30;100.00
84190;BME280;74321;53.406;8.146;2024-03-08T18:07:23;101418.72;;;4.31;100.00
84190;BME280;74321;53.406;8.146;2024-03-08T18:12:25;101419.22;;;4.20;100.00
84190;BME280;74321;53.406;8.146;2024-03-08T18:17:27;101420.78;;;4.15;100.00
84190;BME280;74321;53.406;8.146;2024-03-08T18:22:29;101369.38;;;3.69;100.00
84190;BME280;74321;53.406;8.146;2024-03-08T18:27:31;101415.31;;;3.78;100.00
84190;BME280;74321;53.406;8.146;2024-03-08T18:32:33;101446.03;;;3.87;100.00
84190;BME280;74321;53.406;8.146;2024-03-08T18:37:36;101448.44;;;3.82;100.00
84190;BME280;74321;53.406;8.146;2024-03-08T18:42:39;101447.25;;;3.73;100.00
84190;BME280;74321;53.406;8.146;2024-03-08T18:47:50;101442.41;;;3.55;100.00
84190;BME280;74321;53.406;8.146;2024-03-08T18:52:52;101437.81;;;3.69;100.00
84190;BME280;74321;53.406;8.146;2024-03-08T18:57:55;101437.34;;;3.55;100.00
84190;BME280;74321;53.406;8.146;2024-03-08T19:03:05;101425.66;;;3.58;100.00
84190;BME280;74321;53.406;8.146;2024-03-08T19:08:11;101422.75;;;3.48;100.00
84190;BME280;74321;53.406;8.146;2024-03-08T19:13:18;101429.25;;;3.65;100.00
84190;BME280;74321;53.406;8.146;2024-03-08T19:18:20;101397.78;;;3.34;100.00
84190;BME280;74321;53.406;8.146;2024-03-08T19:23:23;101421.53;;;3.38;100.00
84190;BME280;74321;53.406;8.146;2024-03-08T19:28:25;101405.75;;;3.45;100.00
84190;BME280;74321;53.406;8.146;2024-03-08T19:33:27;101403.91;;;3.65;100.00
84190;BME280;74321;53.406;8.146;2024-03-08T19:38:33;101409.47;;;3.55;100.00
84190;BME280;74321;53.406;8.146;2024-03-08T19:43:35;101407.06;;;3.58;100.00
84190;BME280;74321;53.406;8.146;2024-03-08T19:48:40;101390.69;;;3.48;100.00
84190;BME280;74321;53.406;8.146;2024-03-08T19:53:44;101381.50;;;3.52;100.00
84190;BME280;74321;53.406;8.146;2024-03-08T19:58:46;101373.50;;;3.40;100.00
84190;BME280;74321;53.406;8.146;2024-03-08T20:03:49;101390.88;;;3.54;100.00
84190;BME280;74321;53.406;8.146;2024-03-08T20:08:52;101384.66;;;3.46;100.00
84190;BME280;74321;53.406;8.146;2024-03-08T20:13:54;101379.06;;;3.31;100.00
84190;BME280;74321;53.406;8.146;2024-03-08T20:18:57;101384.97;;;3.30;100.00
84190;BME280;74321;53.406;8.146;2024-03-08T20:24:04;101378.03;;;3.24;100.00
84190;BME280;74321;53.406;8.146;2024-03-08T20:29:09;101378.63;;;3.17;100.00
84190;BME280;74321;53.406;8.146;2024-03-08T20:34:13;101362.38;;;2.88;100.00
84190;BME280;74321;53.406;8.146;2024-03-08T20:39:16;101374.16;;;2.88;100.00
84190;BME280;74321;53.406;8.146;2024-03-08T20:44:18;101371.06;;;2.95;100.00
84190;BME280;74321;53.406;8.146;2024-03-08T20:49:20;101369.50;;;2.74;100.00
84190;BME280;74321;53.406;8.146;2024-03-08T20:54:22;101360.56;;;2.84;100.00
84190;BME280;74321;53.406;8.146;2024-03-08T20:59:24;101357.28;;;2.64;100.00
84190;BME280;74321;53.406;8.146;2024-03-08T21:04:26;101335.44;;;2.66;100.00
84190;BME280;74321;53.406;8.146;2024-03-08T21:09:30;101331.97;;;2.64;100.00
84190;BME280;74321;53.406;8.146;2024-03-08T21:14:32;101327.53;;;2.81;100.00
84190;BME280;74321;53.406;8.146;2024-03-08T21:19:35;101333.97;;;2.73;100.00
84190;BME280;74321;53.406;8.146;2024-03-08T21:24:38;101325.19;;;2.63;100.00
84190;BME280;74321;53.406;8.146;2024-03-08T21:29:40;101299.28;;;2.46;100.00
84190;BME280;74321;53.406;8.146;2024-03-08T21:34:42;101314.78;;;2.56;100.00
84190;BME280;74321;53.406;8.146;2024-03-08T21:39:44;101303.63;;;2.49;100.00
84190;BME280;74321;53.406;8.146;2024-03-08T21:44:46;101310.06;;;2.65;100.00
84190;BME280;74321;53.406;8.146;2024-03-08T21:49:48;101296.09;;;2.50;100.00
84190;BME280;74321;53.406;8.146;2024-03-08T21:54:52;101275.66;;;2.46;100.00
84190;BME280;74321;53.406;8.146;2024-03-08T21:59:54;101304.25;;;2.43;100.00
84190;BME280;74321;53.406;8.146;2024-03-08T22:04:57;101289.25;;;2.25;100.00
84190;BME280;74321;53.406;8.146;2024-03-08T22:09:59;101269.31;;;2.11;100.00
84190;BME280;74321;53.406;8.146;2024-03-08T22:15:01;101295.72;;;1.96;100.00
84190;BME280;74321;53.406;8.146;2024-03-08T22:20:03;101281.31;;;2.16;100.00
84190;BME280;74321;53.406;8.146;2024-03-08T22:25:13;101282.13;;;1.93;100.00
84190;BME280;74321;53.406;8.146;2024-03-08T22:30:19;101284.53;;;2.12;100.00
84190;BME280;74321;53.406;8.146;2024-03-08T22:35:21;101264.72;;;2.01;100.00
84190;BME280;74321;53.406;8.146;2024-03-08T22:40:25;101265.72;;;2.06;100.00
84190;BME280;74321;53.406;8.146;2024-03-08T22:45:29;101249.22;;;1.71;100.00
84190;BME280;74321;53.406;8.146;2024-03-08T22:50:34;101273.03;;;1.55;100.00
84190;BME280;74321;53.406;8.146;2024-03-08T22:55:40;101270.19;;;1.26;100.00
84190;BME280;74321;53.406;8.146;2024-03-08T23:00:42;101237.41;;;1.07;100.00
84190;BME280;74321;53.406;8.146;2024-03-08T23:05:46;101239.00;;;1.24;100.00
84190;BME280;74321;53.406;8.146;2024-03-08T23:10:48;101260.78;;;1.43;100.00
84190;BME280;74321;53.406;8.146;2024-03-08T23:15:51;101239.50;;;0.96;100.00
84190;BME280;74321;53.406;8.146;2024-03-08T23:20:54;101256.50;;;1.21;100.00
84190;BME280;74321;53.406;8.146;2024-03-08T23:25:57;101263.78;;;1.13;100.00
84190;BME280;74321;53.406;8.146;2024-03-08T23:30:59;101244.06;;;1.05;100.00
84190;BME280;74321;53.406;8.146;2024-03-08T23:36:02;101251.50;;;1.42;100.00
84190;BME280;74321;53.406;8.146;2024-03-08T23:41:05;101251.19;;;1.34;100.00
84190;BME280;74321;53.406;8.146;2024-03-08T23:46:07;101241.97;;;1.16;100.00
84190;BME280;74321;53.406;8.146;2024-03-08T23:51:09;101222.94;;;1.24;100.00
84190;BME280;74321;53.406;8.146;2024-03-08T23:56:12;101244.44;;;1.14;100.00
